RJBB/KIX METAR and TAF weather

Enter ICAO airport designator
Station Type Date Time Source
RJBB METAR 2023/02/05 23:00 UTC NOAA

RJBB 052300Z 07007KT 9999 FEW020 BKN/// 04/03 Q1024 NOSIG


Station Type Date Time Source
RJBB Decoded METAR 2023/02/05 23:00 UTC NOAA

Kansai International Airport, Japan (RJBB) 34-25N 135-15E 8M
Feb 05, 2023 - 06:00 PM EST / 2023.02.05 2300 UTC
Wind: from the ENE (070 degrees) at 8 MPH (7 KT):0
Visibility: greater than 7 mile(s):0
Sky conditions: mostly cloudy
Temperature: 39 F (4 C)
Dew Point: 37 F (3 C)
Relative Humidity: 93%
Pressure (altimeter): 30.24 in. Hg (1024 hPa)
ob: RJBB 052300Z 07007KT 9999 FEW020 BKN/// 04/03 Q1024 NOSIG
cycle: 23

Station Type Date Time Source
RJBB TAF 2023/02/05 18:30 UTC NOAA

TAF RJBB 051705Z 0518/0700 06005KT 9999 FEW025
BECMG 0603/0605 30004KT
BECMG 0606/0609 06005KT

Example: see airport list